This is the latest recevied weather packets stored in our database for station/object DH1NAI-6. If no packets are shown the sender has not sent any weather packets the latest 10 day(s).
| Time | Temp. | Humidity | Pressure | Rain* | Wind** | Luminosity | Snow |
|---|---|---|---|---|---|---|---|
| 1787828869 | 24.44° C | 69% | 1015 hPa | 0 mm | - | 164 W/m² | - |
| 1787828261 | 23.89° C | 66% | 1015.2 hPa | 0 mm | - | 173 W/m² | - |
| 1787827653 | 23.33° C | 68% | 1015 hPa | 0 mm | - | 171 W/m² | - |
| 1787827045 | 23.33° C | 70% | 1015.1 hPa | 0 mm | - | 160 W/m² | - |
| 1787826437 | 22.78° C | 72% | 1015.2 hPa | 0 mm | - | 137 W/m² | - |
| 1787825829 | 21.67° C | 74% | 1014.9 hPa | 0 mm | - | 87 W/m² | - |
| 1787825221 | 22.78° C | 72% | 1015.2 hPa | 0 mm | - | 93 W/m² | - |
| 1787824613 | 22.78° C | 70% | 1015.4 hPa | 0 mm | - | 151 W/m² | - |
| 1787824005 | 21.67° C | 74% | 1015.2 hPa | 0 mm | - | 148 W/m² | - |
| 1787823397 | 21.67° C | 74% | 1015.2 hPa | 0 mm | - | 62 W/m² | - |
| 1787822789 | 22.78° C | 70% | 1015.5 hPa | 0 mm | - | 137 W/m² | - |
| 1787822181 | 22.22° C | 73% | 1015.4 hPa | 0 mm | - | 174 W/m² | - |
| 1787821573 | 21.67° C | 75% | 1015.5 hPa | 0 mm | - | 141 W/m² | - |
| 1787820965 | 20.56° C | 75% | 1015.5 hPa | 0 mm | - | 133 W/m² | - |
| 1787820357 | 21.67° C | 74% | 1015.4 hPa | 0 mm | - | 128 W/m² | - |
| 1787819749 | 20° C | 78% | 1015.2 hPa | 0 mm | - | 183 W/m² | - |
| 1787819141 | 21.67° C | 74% | 1015.6 hPa | 0 mm | - | 92 W/m² | - |
| 1787818533 | 21.11° C | 75% | 1015.2 hPa | 0 mm | - | 135 W/m² | - |
| 1787817925 | 20.56° C | 78% | 1015.7 hPa | 0 mm | - | 118 W/m² | - |
| 1787817317 | 20.56° C | 79% | 1015.5 hPa | 0 mm | - | 106 W/m² | - |
| 1787816709 | 20° C | 78% | 1015.5 hPa | 0 mm | - | 98 W/m² | - |
| 1787816101 | 19.44° C | 80% | 1015.3 hPa | 0 mm | - | 92 W/m² | - |
| 1787815493 | 18.89° C | 81% | 1015.1 hPa | 0 mm | - | 82 W/m² | - |
| 1787814885 | 18.89° C | 82% | 1015 hPa | 0 mm | - | 78 W/m² | - |
| 1787814277 | 18.33° C | 82% | 1015.1 hPa | 0 mm | - | 69 W/m² | - |
* Rain latest hour (hover to see other rain measurements)
** Current wind speed in m/s (hover to see current wind gust speed)